Time;durP1;ratioP1;P1;durP2;ratioP2;P2;SDS_P1;SDS_P2;PMS_P1;PMS_P2;Temp;Humidity;BMP_temperature;BMP_pressure;BME280_temperature;BME280_humidity;BME280_pressure;Samples;Min_cycle;Max_cycle;Signal;HPM_P1;HPM_P2
2023/03/21 06:33:03;;;;;;;13.35;3.47;;;;;;;;;;5005512;23;20054;-88
2023/03/21 06:35:52;;;;;;;7.38;2.70;;;;;;;;;;4933507;29;20031;-91
2023/03/21 18:26:30;;;;;;;8.48;3.28;;;;;;;;;;4887223;29;20032;-82
2023/03/21 18:29:21;;;;;;;;;;;;;;;;;;;;;
2023/03/21 18:32:02;;;;;;;8.90;2.75;;;;;;;;;;4874104;29;20088;-79
2023/03/21 18:34:28;;;;;;;9.90;3.70;;;;;;;;;;4890626;29;20131;-79
2023/03/21 18:36:54;;;;;;;13.73;4.88;;;;;;;;;;4910773;29;20822;-79
2023/03/21 18:39:21;;;;;;;7.90;4.90;;;;;;;;;;4903979;29;20052;-80
2023/03/21 18:41:47;;;;;;;12.73;5.00;;;;;;;;;;4904836;29;20045;-80
2023/03/21 18:44:15;;;;;;;15.32;8.52;;;;;;;;;;4902724;29;20032;-80
2023/03/21 18:46:46;;;;;;;13.68;7.07;;;;;;;;;;4911180;29;20127;-80
2023/03/21 18:49:14;;;;;;;31.02;17.38;;;;;;;;;;4892067;29;20051;-79
2023/03/21 18:51:41;;;;;;;85.50;45.17;;;;;;;;;;4894627;29;20032;-79
2023/03/21 18:54:07;;;;;;;97.82;53.55;;;;;;;;;;4905541;29;20024;-80
2023/03/21 18:56:36;;;;;;;40.97;21.25;;;;;;;;;;4894355;29;20109;-79
2023/03/21 18:59:02;;;;;;;24.45;10.73;;;;;;;;;;4908267;29;20112;-79
2023/03/21 19:01:28;;;;;;;16.83;9.32;;;;;;;;;;4910023;29;20126;-78
2023/03/21 19:03:58;;;;;;;13.88;6.05;;;;;;;;;;4908365;29;20119;-78
2023/03/21 19:06:25;;;;;;;5.68;2.83;;;;;;;;;;4905541;29;20360;-78
2023/03/21 19:08:51;;;;;;;5.97;2.70;;;;;;;;;;4897362;29;20083;-79
2023/03/21 19:11:20;;;;;;;4.90;2.30;;;;;;;;;;4897156;29;20748;-79
2023/03/21 19:13:46;;;;;;;8.45;3.38;;;;;;;;;;4916098;29;20027;-80
2023/03/21 19:16:13;;;;;;;8.85;4.47;;;;;;;;;;4912403;29;20123;-79
2023/03/21 19:18:39;;;;;;;9.57;5.68;;;;;;;;;;4903973;29;20076;-78
2023/03/21 19:21:05;;;;;;;11.32;6.43;;;;;;;;;;4892267;29;20541;-79
2023/03/21 19:23:31;;;;;;;10.95;6.15;;;;;;;;;;4895378;29;20505;-80
2023/03/21 19:25:58;;;;;;;14.80;5.78;;;;;;;;;;4908058;29;20143;-79
2023/03/21 19:28:24;;;;;;;13.23;6.45;;;;;;;;;;4888528;29;20029;-79
2023/03/21 19:30:50;;;;;;;19.55;7.05;;;;;;;;;;4906409;29;20048;-79
2023/03/21 19:33:16;;;;;;;12.32;6.45;;;;;;;;;;4912434;29;20038;-80
2023/03/21 19:35:42;;;;;;;14.48;6.38;;;;;;;;;;4907875;29;20047;-81
2023/03/21 19:38:10;;;;;;;11.90;6.13;;;;;;;;;;4914941;29;20036;-80
2023/03/21 19:40:39;;;;;;;13.68;5.60;;;;;;;;;;4895624;29;20040;-80
2023/03/21 19:43:06;;;;;;;9.10;4.97;;;;;;;;;;4914168;29;20063;-81
2023/03/21 19:45:32;;;;;;;11.93;5.53;;;;;;;;;;4908590;29;20051;-80
2023/03/21 19:47:58;;;;;;;9.38;5.20;;;;;;;;;;4907605;29;20032;-80
2023/03/21 19:50:27;;;;;;;9.18;5.63;;;;;;;;;;4913826;29;20040;-80
2023/03/21 19:52:54;;;;;;;10.23;5.88;;;;;;;;;;4896877;29;20039;-80
2023/03/21 19:55:20;;;;;;;10.50;5.97;;;;;;;;;;4893922;29;20040;-80
2023/03/21 19:57:48;;;;;;;14.15;7.85;;;;;;;;;;4897060;29;20066;-80
2023/03/21 20:00:15;;;;;;;13.07;5.70;;;;;;;;;;4896158;29;20826;-80
2023/03/21 20:02:44;;;;;;;10.60;6.05;;;;;;;;;;4906384;29;20036;-80
2023/03/21 20:05:10;;;;;;;10.65;5.80;;;;;;;;;;4903571;29;20079;-80
2023/03/21 20:07:36;;;;;;;9.68;4.20;;;;;;;;;;4895382;29;20471;-80
2023/03/21 20:10:03;;;;;;;6.95;4.10;;;;;;;;;;4901850;29;20041;-80
2023/03/21 20:12:31;;;;;;;7.88;4.05;;;;;;;;;;4894807;29;20028;-80
2023/03/21 20:14:57;;;;;;;6.75;2.20;;;;;;;;;;4894190;29;20063;-80
2023/03/21 20:17:23;;;;;;;14.73;10.20;;;;;;;;;;4895436;29;20024;-81
2023/03/21 20:19:49;;;;;;;23.75;14.63;;;;;;;;;;4900594;29;20031;-79
2023/03/21 20:22:17;;;;;;;30.77;18.77;;;;;;;;;;4889851;29;20100;-81
2023/03/21 20:24:43;;;;;;;19.58;12.65;;;;;;;;;;4894206;29;20080;-80
2023/03/21 20:27:09;;;;;;;10.70;6.43;;;;;;;;;;4909955;29;20032;-81
2023/03/21 20:29:38;;;;;;;14.85;7.07;;;;;;;;;;4902513;29;20055;-80
2023/03/21 20:38:23;;;;;;;;;;;;;;;;;;;;;
2023/03/21 20:44:31;;;;;;;5.13;2.10;;;;;;;;;;4905366;29;20074;-80
2023/03/21 20:47:09;;;;;;;;;;;;;;;;;;;;;
2023/03/21 20:50:07;;;;;;;;;;;;;;;;;;;;;
2023/03/21 20:52:57;;;;;;;4.82;1.95;;;;;;;;;;4869165;29;20078;-80
2023/03/21 21:02:07;;;;;;;;;;;;;;;;;;;;;
2023/03/21 21:05:08;;;;;;;7.88;3.15;;;;;;;;;;4887940;29;20481;-80
2023/03/21 21:15:53;;;;;;;9.82;3.75;;;;;;;;;;4877500;27;20120;-80
2023/03/21 21:18:57;;;;;;;8.70;3.40;;;;;;;;;;4872165;29;20131;-80
2023/03/21 21:21:30;;;;;;;7.70;4.10;;;;;;;;;;4867880;29;20110;-80
2023/03/21 21:24:30;;;;;;;6.68;3.15;;;;;;;;;;4892931;29;20040;-79
2023/03/21 21:30:42;;;;;;;10.43;3.97;;;;;;;;;;4746484;30;20044;-79
2023/03/21 21:36:44;;;;;;;10.48;3.50;;;;;;;;;;4709942;30;20059;-79
2023/03/21 21:39:40;;;;;;;;;;;;;;;;;;;;;
2023/03/21 21:45:56;;;;;;;9.27;3.40;;;;;;;;;;4707784;30;20037;-80
2023/03/21 21:49:03;;;;;;;;;;;;;;;;;;;;;
2023/03/21 21:54:42;;;;;;;;;;;;;;;;;;;;;
2023/03/21 21:57:32;;;;;;;;;;;;;;;;;;;;;
2023/03/21 22:00:16;;;;;;;15.18;4.35;;;;;;;;;;4911000;29;20036;-79
2023/03/21 22:18:38;;;;;;;6.93;2.25;;;;;;;;;;4922725;29;20478;-80
2023/03/21 22:27:53;;;;;;;7.05;2.50;;;;;;;;;;4814043;29;20045;-80
2023/03/21 22:33:48;;;;;;;7.05;2.10;;;;;;;;;;4870436;29;20060;-80
2023/03/21 22:39:31;;;;;;;6.85;1.83;;;;;;;;;;4901257;29;20028;-80
2023/03/21 22:42:20;;;;;;;6.80;2.30;;;;;;;;;;4912086;29;20074;-80
2023/03/21 22:44:54;;;;;;;7.05;2.03;;;;;;;;;;4929562;29;20040;-79
2023/03/21 22:50:49;;;;;;;10.68;2.20;;;;;;;;;;4885719;29;20095;-80
2023/03/21 22:53:50;;;;;;;5.47;2.03;;;;;;;;;;4913899;29;20055;-80
2023/03/21 22:56:48;;;;;;;6.85;1.50;;;;;;;;;;4911361;29;20039;-79
2023/03/21 22:59:20;;;;;;;8.98;2.50;;;;;;;;;;4885563;29;20218;-79
2023/03/21 23:02:11;;;;;;;;;;;;;;;;;;;;;
2023/03/21 23:05:11;;;;;;;14.82;3.83;;;;;;;;;;4886129;29;20028;-79
2023/03/21 23:11:23;;;;;;;10.23;3.22;;;;;;;;;;4888440;29;20083;-79
2023/03/21 23:14:13;;;;;;;11.88;3.13;;;;;;;;;;4870615;29;20140;-79
2023/03/21 23:17:15;;;;;;;4.63;1.65;;;;;;;;;;4884095;29;20075;-79
2023/03/21 23:19:51;;;;;;;8.25;1.30;;;;;;;;;;4879273;29;20052;-79
2023/03/21 23:22:17;;;;;;;4.35;1.52;;;;;;;;;;4881827;29;20048;-79
2023/03/21 23:25:07;;;;;;;;;;;;;;;;;;;;;
2023/03/21 23:27:42;;;;;;;5.65;1.65;;;;;;;;;;4885697;29;20036;-80
2023/03/21 23:35:57;;;;;;;4.38;1.52;;;;;;;;;;4905630;29;20051;-79
2023/03/21 23:42:13;;;;;;;;;;;;;;;;;;;;;
2023/03/21 23:57:01;;;;;;;4.20;1.33;;;;;;;;;;4854307;29;20113;-79
